sim
Sign-in with your pilot id or email,
or register
Callsign
Passwort

Schedule Details

Flight Number: OEC5388
Departure: Stockholm-Bromma Airport (ESSB) at Time
Arrival: Stockholm Arlanda Airport (ESSA) at Time

Weather Information
Getting current METAR information for ESSB 240650Z 21003KT 180V250 9999 SCT008 BKN013 03/02 Q1011
Getting current METAR information for ESSA 240650Z 20004KT 9999 BKN022 01/M01 Q1010 R01R/0///95 R08/0///95 NOSIG

Schedule Frequency

Route Map